createdAt,value
2017-10-16T00:01:30.845Z,16.43
2017-10-16T00:03:57.112Z,7.60
2017-10-16T00:06:24.056Z,11.17
2017-10-16T00:08:51.044Z,12.23
2017-10-16T00:11:17.275Z,9.30
2017-10-16T00:13:43.468Z,12.70
2017-10-16T00:19:03.003Z,13.13
2017-10-16T00:21:29.948Z,14.97
2017-10-16T00:23:56.920Z,14.57
2017-10-16T00:26:23.085Z,10.43
2017-10-16T00:28:49.243Z,8.63
2017-10-16T00:31:16.210Z,9.63
2017-10-16T00:33:42.452Z,12.50
2017-10-16T00:36:08.697Z,12.90
2017-10-16T00:38:34.891Z,10.53
2017-10-16T00:41:01.125Z,23.67
2017-10-16T00:43:27.379Z,9.10
2017-10-16T00:45:53.671Z,17.20
2017-10-16T00:48:19.850Z,15.40
2017-10-16T00:50:46.046Z,9.70
2017-10-16T00:53:12.265Z,13.80
2017-10-16T00:55:38.519Z,13.30
2017-10-16T00:58:04.848Z,10.27
2017-10-16T01:00:31.105Z,8.57
2017-10-16T01:02:57.315Z,8.73
2017-10-16T01:05:23.505Z,13.60
2017-10-16T01:07:49.716Z,9.60
2017-10-16T01:10:16.717Z,10.67
2017-10-16T01:12:42.936Z,14.00
2017-10-16T01:15:09.171Z,15.13
2017-10-16T01:17:35.437Z,8.63
2017-10-16T01:20:02.437Z,15.73
2017-10-16T01:22:28.650Z,9.27
2017-10-16T01:24:54.924Z,8.30
2017-10-16T01:27:21.187Z,13.40
2017-10-16T01:29:47.473Z,12.30
2017-10-16T01:32:13.793Z,12.50
2017-10-16T01:34:40.025Z,19.47
2017-10-16T01:37:06.280Z,17.37
2017-10-16T01:39:32.549Z,8.10
2017-10-16T01:41:58.741Z,10.43
2017-10-16T01:44:24.910Z,17.10
2017-10-16T01:46:51.157Z,15.50
2017-10-16T01:49:17.476Z,9.23
2017-10-16T01:51:43.712Z,9.73
2017-10-16T01:54:09.992Z,9.23
2017-10-16T01:56:36.279Z,9.30
2017-10-16T01:59:02.505Z,9.60
2017-10-16T02:01:28.710Z,9.13
2017-10-16T02:03:54.965Z,9.40
2017-10-16T02:06:21.149Z,8.47
2017-10-16T02:08:48.070Z,9.70
2017-10-16T02:11:15.007Z,11.73
2017-10-16T02:13:41.904Z,13.70
2017-10-16T02:16:08.058Z,12.13
2017-10-16T02:18:34.278Z,16.73
2017-10-16T02:21:00.469Z,10.27
2017-10-16T02:23:27.405Z,10.83
2017-10-16T02:25:54.338Z,8.47
2017-10-16T02:28:21.317Z,13.30
2017-10-16T02:30:47.524Z,11.73
2017-10-16T02:33:14.462Z,13.83
2017-10-16T02:35:41.398Z,9.90
2017-10-16T02:38:07.570Z,8.23
2017-10-16T02:40:33.795Z,8.67
2017-10-16T02:42:59.985Z,18.43
2017-10-16T02:45:26.158Z,8.40
2017-10-16T02:47:52.334Z,13.53
2017-10-16T02:50:18.522Z,7.77
2017-10-16T02:52:44.712Z,10.90
2017-10-16T02:55:11.614Z,12.17
2017-10-16T02:57:37.810Z,11.20
2017-10-16T03:00:04.052Z,7.40
2017-10-16T03:02:30.279Z,10.37
2017-10-16T03:04:56.523Z,10.83
2017-10-16T03:07:22.685Z,10.13
2017-10-16T03:09:48.885Z,10.07
2017-10-16T03:12:15.081Z,10.60
2017-10-16T03:14:41.248Z,19.43
2017-10-16T03:17:07.430Z,6.87
2017-10-16T03:19:33.587Z,15.07
2017-10-16T03:21:59.787Z,10.53
2017-10-16T03:24:26.014Z,7.03
2017-10-16T03:26:52.254Z,19.33
2017-10-16T03:29:18.512Z,22.00
2017-10-16T03:31:44.799Z,9.87
2017-10-16T03:34:11.941Z,9.00
2017-10-16T03:36:38.156Z,8.03
2017-10-16T03:39:04.423Z,18.07
2017-10-16T03:41:30.614Z,10.27
2017-10-16T03:43:57.565Z,7.67
2017-10-16T03:46:24.449Z,11.37
2017-10-16T03:48:50.685Z,10.37
2017-10-16T03:51:16.923Z,11.40
2017-10-16T03:53:43.899Z,6.77
2017-10-16T03:56:10.874Z,6.57
2017-10-16T03:58:37.165Z,12.27
2017-10-16T04:01:04.097Z,8.23
2017-10-16T04:03:30.304Z,26.23
2017-10-16T04:05:56.550Z,26.20
2017-10-16T04:08:22.760Z,26.50
2017-10-16T04:10:48.950Z,45.03
2017-10-16T04:13:15.142Z,28.10
2017-10-16T04:15:41.293Z,36.03
2017-10-16T04:18:08.249Z,21.37
2017-10-16T04:20:34.480Z,29.60
2017-10-16T04:23:00.718Z,18.80
2017-10-16T04:25:26.946Z,24.10
2017-10-16T04:27:53.210Z,15.10
2017-10-16T04:30:19.406Z,18.73
2017-10-16T04:32:45.615Z,11.50
2017-10-16T04:35:11.823Z,11.53
2017-10-16T04:37:38.749Z,13.60
2017-10-16T04:40:04.892Z,15.00
2017-10-16T04:42:31.091Z,8.90
2017-10-16T04:44:57.274Z,15.37
2017-10-16T04:47:23.519Z,10.83
2017-10-16T04:49:49.775Z,6.67
2017-10-16T04:52:16.013Z,21.53
2017-10-16T04:54:42.239Z,14.13
2017-10-16T04:57:08.416Z,9.87
2017-10-16T04:59:34.624Z,9.70
2017-10-16T05:02:01.546Z,7.90
2017-10-16T05:04:27.798Z,9.03
2017-10-16T05:06:55.103Z,8.97
2017-10-16T05:09:21.417Z,7.10
2017-10-16T05:11:48.012Z,11.87
2017-10-16T05:14:14.946Z,9.50
2017-10-16T05:16:41.562Z,7.93
2017-10-16T05:19:07.808Z,12.20
2017-10-16T05:21:34.017Z,7.97
2017-10-16T05:24:00.226Z,16.37
2017-10-16T05:26:26.380Z,8.70
2017-10-16T05:28:52.617Z,9.60
2017-10-16T05:31:18.813Z,9.37
2017-10-16T05:33:45.031Z,10.27
2017-10-16T19:54:18.895Z,18.97
2017-10-16T19:56:45.874Z,25.33
2017-10-16T19:59:12.086Z,27.10
2017-10-16T20:01:38.713Z,16.80
2017-10-16T20:04:04.972Z,18.23
2017-10-16T20:06:31.258Z,17.63
2017-10-16T20:08:58.691Z,26.80
2017-10-16T20:11:25.004Z,29.30
2017-10-16T20:13:51.236Z,25.70
2017-10-16T20:16:17.548Z,26.83
2017-10-16T20:18:43.798Z,33.13
2017-10-16T20:21:10.069Z,19.23
2017-10-16T20:23:37.150Z,18.50
2017-10-16T20:26:03.432Z,19.70
2017-10-16T20:28:30.418Z,23.27
2017-10-16T20:30:57.047Z,27.13
2017-10-16T20:33:23.256Z,22.87
2017-10-16T20:35:50.354Z,27.20
2017-10-16T20:38:16.668Z,65.60
2017-10-16T20:40:42.922Z,66.73
2017-10-16T20:43:09.135Z,59.23
2017-10-16T20:45:35.460Z,47.00
2017-10-16T20:48:01.716Z,40.27
2017-10-16T20:50:28.032Z,29.77
2017-10-16T20:52:54.322Z,35.50
2017-10-16T20:55:21.328Z,25.40
2017-10-16T20:57:47.542Z,28.13
2017-10-16T21:00:15.557Z,30.00
2017-10-16T21:02:42.605Z,25.30
2017-10-16T21:05:09.578Z,21.63
2017-10-16T21:07:36.417Z,26.87
2017-10-16T21:10:02.680Z,24.27
2017-10-16T21:12:28.940Z,23.30
2017-10-16T21:14:56.241Z,28.47
2017-10-16T21:17:22.475Z,21.30
2017-10-16T21:19:48.682Z,21.27
2017-10-16T21:22:14.989Z,20.83
2017-10-16T21:24:41.987Z,23.50
2017-10-16T21:27:08.245Z,24.70
2017-10-16T21:29:34.501Z,25.33
2017-10-16T21:32:01.500Z,17.80
2017-10-16T21:34:27.779Z,20.87
2017-10-16T21:36:54.855Z,29.37
2017-10-16T21:39:21.152Z,20.90
2017-10-16T21:41:48.139Z,22.03
2017-10-16T21:44:14.415Z,26.07
2017-10-16T21:46:40.661Z,29.83
2017-10-16T21:49:07.668Z,27.93
2017-10-16T21:51:34.298Z,35.60
2017-10-16T21:54:00.601Z,27.90
2017-10-16T21:56:26.889Z,27.30
2017-10-16T21:58:54.309Z,31.03
2017-10-16T22:01:20.541Z,20.90
2017-10-16T22:03:46.831Z,20.73
2017-10-16T22:06:13.138Z,19.17
2017-10-16T22:08:40.131Z,18.57
2017-10-16T22:11:06.448Z,18.80
2017-10-16T22:13:33.074Z,23.03
2017-10-16T22:15:59.320Z,17.97
2017-10-16T22:18:25.533Z,23.47
2017-10-16T22:20:51.788Z,23.20
2017-10-16T22:23:18.060Z,23.30
2017-10-16T22:25:44.314Z,20.20
2017-10-16T22:28:11.341Z,28.40
2017-10-16T22:30:38.333Z,23.33
2017-10-16T22:33:04.533Z,20.63
2017-10-16T22:35:31.554Z,19.03
2017-10-16T22:37:57.756Z,19.90
2017-10-16T22:40:23.956Z,20.50
2017-10-16T22:42:50.281Z,20.40
2017-10-16T22:45:16.594Z,15.40
2017-10-16T22:47:43.546Z,26.27
2017-10-16T22:50:10.570Z,16.90
2017-10-16T22:52:36.742Z,18.77
2017-10-16T22:55:03.020Z,18.40
2017-10-16T22:57:29.274Z,22.37
2017-10-16T22:59:56.311Z,18.87
2017-10-16T23:02:23.234Z,24.77
2017-10-16T23:04:49.569Z,26.13
2017-10-16T23:07:15.855Z,26.50
2017-10-16T23:09:42.052Z,19.13
2017-10-16T23:12:09.038Z,16.30
2017-10-16T23:14:35.273Z,19.33
2017-10-16T23:17:01.548Z,17.10
2017-10-16T23:19:28.617Z,28.23
2017-10-16T23:21:54.889Z,26.10
2017-10-16T23:24:21.594Z,25.30
2017-10-16T23:26:47.818Z,18.77
2017-10-16T23:29:14.005Z,17.80
2017-10-16T23:31:40.212Z,37.93
2017-10-16T23:34:06.425Z,33.23
2017-10-16T23:36:32.626Z,22.90
2017-10-16T23:38:58.828Z,29.13
2017-10-16T23:41:25.085Z,18.37
2017-10-16T23:43:51.320Z,16.93
2017-10-16T23:46:17.519Z,20.60
2017-10-16T23:48:44.893Z,22.13
2017-10-16T23:51:11.142Z,18.20
2017-10-16T23:53:37.357Z,16.67
2017-10-16T23:56:04.088Z,21.80
